Time;durP1;ratioP1;P1;durP2;ratioP2;P2;SDS_P1;SDS_P2;PMS_P1;PMS_P2;Temp;Humidity;BMP_temperature;BMP_pressure;BME280_temperature;BME280_humidity;BME280_pressure;Samples;Min_cycle;Max_cycle;Signal;HPM_P1;HPM_P2
2020/12/01 00:02:20;;;;;;;5.97;4.05;;;7.60;77.90;;;;;;5003103;28;20218;-73
2020/12/01 00:04:46;;;;;;;7.03;4.30;;;7.60;77.90;;;;;;5013132;28;20037;-74
2020/12/01 00:07:12;;;;;;;6.65;4.43;;;7.60;77.90;;;;;;5012010;28;20060;-74
2020/12/01 00:09:37;;;;;;;7.32;4.80;;;7.60;77.90;;;;;;5012087;28;20080;-75
2020/12/01 00:12:04;;;;;;;5.93;4.05;;;7.60;77.90;;;;;;4995559;28;20481;-74
2020/12/01 00:14:30;;;;;;;6.10;4.55;;;7.70;77.90;;;;;;5013183;28;20117;-74
2020/12/01 00:16:56;;;;;;;6.25;4.50;;;7.70;77.90;;;;;;4995372;28;20359;-74
2020/12/01 00:19:21;;;;;;;6.93;5.10;;;7.70;77.90;;;;;;5012224;28;20040;-75
2020/12/01 00:21:47;;;;;;;7.63;5.00;;;7.70;77.90;;;;;;5012860;28;20462;-74
2020/12/01 00:24:13;;;;;;;7.15;5.07;;;7.70;77.90;;;;;;5011992;28;20034;-74
2020/12/01 00:26:39;;;;;;;6.45;4.75;;;7.70;77.90;;;;;;5014838;28;20109;-75
2020/12/01 00:29:06;;;;;;;6.22;4.75;;;7.70;77.90;;;;;;5011303;28;20117;-74
2020/12/01 00:31:43;;;;;;;5.82;4.10;;;7.80;78.00;;;;;;5012899;28;20473;-74
2020/12/01 00:34:11;;;;;;;7.20;4.90;;;7.80;77.90;;;;;;5006800;28;20034;-74
2020/12/01 00:36:37;;;;;;;6.85;5.10;;;7.70;77.90;;;;;;5012692;28;20060;-74
2020/12/01 00:39:04;;;;;;;6.65;4.80;;;7.80;77.90;;;;;;5011025;28;20057;-74
2020/12/01 00:41:30;;;;;;;6.82;4.85;;;7.80;77.90;;;;;;5012324;28;20504;-75
2020/12/01 00:43:56;;;;;;;7.65;5.25;;;7.80;77.90;;;;;;4994913;28;20120;-74
2020/12/01 00:46:22;;;;;;;7.03;4.80;;;7.80;77.90;;;;;;5011641;28;20437;-74
2020/12/01 00:48:48;;;;;;;7.13;5.28;;;7.80;77.90;;;;;;4994940;28;20043;-74
2020/12/01 00:51:16;;;;;;;7.65;5.15;;;7.80;77.80;;;;;;5004406;28;20026;-76
2020/12/01 00:53:41;;;;;;;6.82;4.90;;;7.90;77.90;;;;;;5011326;28;20550;-74
2020/12/01 00:56:09;;;;;;;6.47;4.78;;;7.90;77.90;;;;;;4993753;28;20033;-74
2020/12/01 00:58:35;;;;;;;7.00;4.78;;;7.90;77.90;;;;;;5011240;28;20427;-74
2020/12/01 01:01:20;;;;;;;7.07;5.22;;;7.90;77.90;;;;;;4996892;28;20466;-74
2020/12/01 01:03:49;;;;;;;6.82;4.85;;;7.90;77.80;;;;;;5027202;28;20088;-74
2020/12/01 01:06:15;;;;;;;6.53;4.68;;;7.90;77.80;;;;;;4995141;28;20033;-75
2020/12/01 01:08:41;;;;;;;6.72;5.07;;;7.90;77.80;;;;;;5011277;28;20480;-74
2020/12/01 01:11:08;;;;;;;6.75;4.82;;;7.90;77.80;;;;;;5027595;28;20022;-73
2020/12/01 01:13:35;;;;;;;6.90;5.15;;;8.00;77.80;;;;;;5012033;28;20111;-74
2020/12/01 01:16:01;;;;;;;7.28;5.25;;;8.00;77.80;;;;;;5010868;28;20034;-74
2020/12/01 01:18:27;;;;;;;7.45;5.10;;;8.00;77.80;;;;;;5011360;28;20026;-75
2020/12/01 01:20:53;;;;;;;7.25;4.80;;;8.00;77.80;;;;;;4995409;28;20100;-74
2020/12/01 01:23:19;;;;;;;7.03;5.03;;;8.00;77.80;;;;;;5005774;28;20406;-74
2020/12/01 01:25:44;;;;;;;6.50;4.47;;;8.00;77.80;;;;;;5012217;28;20101;-75
2020/12/01 01:28:10;;;;;;;6.68;4.78;;;8.00;77.70;;;;;;4993854;28;20396;-74
2020/12/01 01:30:39;;;;;;;5.97;4.13;;;8.10;77.80;;;;;;5013902;28;20084;-75
2020/12/01 01:33:09;;;;;;;5.47;3.90;;;8.10;77.80;;;;;;5015799;28;20030;-74
2020/12/01 01:35:35;;;;;;;6.00;4.15;;;8.10;77.80;;;;;;5014836;28;20537;-75
2020/12/01 01:38:02;;;;;;;6.30;4.30;;;8.10;77.70;;;;;;5013676;28;20044;-79
2020/12/01 01:40:29;;;;;;;5.38;3.88;;;8.10;77.70;;;;;;5014349;28;20034;-74
2020/12/01 01:42:55;;;;;;;5.15;3.63;;;8.10;77.70;;;;;;5014257;28;20034;-75
2020/12/01 01:45:39;;;;;;;5.25;3.90;;;8.10;77.70;;;;;;5016073;28;20022;-74
2020/12/01 01:48:24;;;;;;;5.70;3.70;;;8.20;77.80;;;;;;5014742;28;20034;-74
2020/12/01 01:51:04;;;;;;;5.22;3.58;;;8.20;77.70;;;;;;5015448;28;20072;-75
2020/12/01 01:53:32;;;;;;;4.45;3.15;;;8.20;77.70;;;;;;5016339;28;20048;-74
2020/12/01 01:56:02;;;;;;;4.93;3.45;;;8.20;77.60;;;;;;5014693;28;20114;-76
2020/12/01 01:58:34;;;;;;;5.30;3.45;;;8.20;77.70;;;;;;5014879;28;20021;-75
2020/12/01 02:01:09;;;;;;;5.22;3.40;;;8.20;77.60;;;;;;5015125;28;20080;-76
2020/12/01 02:03:39;;;;;;;7.03;3.30;;;8.20;77.60;;;;;;5011002;28;20080;-74
2020/12/01 02:06:17;;;;;;;5.47;3.30;;;8.30;77.70;;;;;;5030992;28;20040;-75
2020/12/01 02:08:50;;;;;;;5.45;3.47;;;8.30;77.70;;;;;;5015822;28;20026;-75
2020/12/01 02:11:17;;;;;;;4.63;2.80;;;8.30;77.60;;;;;;5030612;28;20373;-74
2020/12/01 02:14:13;;;;;;;5.57;3.17;;;8.30;77.70;;;;;;5015161;28;20061;-76
2020/12/01 02:16:44;;;;;;;5.05;3.13;;;8.30;77.70;;;;;;5024952;28;20030;-75
2020/12/01 02:19:16;;;;;;;5.97;2.97;;;8.30;77.60;;;;;;5015272;28;20025;-75
2020/12/01 02:21:42;;;;;;;5.10;3.20;;;8.30;77.60;;;;;;5014130;28;20084;-74
2020/12/01 02:24:16;;;;;;;5.35;3.10;;;8.30;77.60;;;;;;5030670;28;20392;-75
2020/12/01 02:26:43;;;;;;;4.43;2.80;;;8.30;77.60;;;;;;5039483;28;20041;-75
2020/12/01 02:29:12;;;;;;;4.55;2.80;;;8.30;77.60;;;;;;5013187;28;20072;-74
2020/12/01 02:31:39;;;;;;;4.57;2.60;;;8.30;77.60;;;;;;4998286;28;20041;-75
2020/12/01 02:34:06;;;;;;;5.20;2.65;;;8.40;77.60;;;;;;5014933;28;20021;-75
2020/12/01 02:36:32;;;;;;;4.70;2.85;;;8.30;77.60;;;;;;5015271;28;20465;-74
2020/12/01 02:38:58;;;;;;;4.60;2.40;;;8.30;77.50;;;;;;5015461;28;20068;-74
2020/12/01 02:41:24;;;;;;;4.47;2.53;;;8.40;77.60;;;;;;5014389;28;20054;-75
2020/12/01 02:43:50;;;;;;;3.90;2.25;;;8.30;77.50;;;;;;5023312;28;20030;-78
2020/12/01 02:46:15;;;;;;;3.97;2.38;;;8.40;77.60;;;;;;4997403;28;20037;-75
2020/12/01 02:48:41;;;;;;;5.13;2.17;;;8.40;77.60;;;;;;5013968;28;20072;-76
2020/12/01 02:51:07;;;;;;;4.40;2.38;;;8.40;77.60;;;;;;4994313;28;20042;-74
2020/12/01 02:53:32;;;;;;;4.05;2.30;;;8.40;77.60;;;;;;5011882;28;20056;-74
2020/12/01 02:55:58;;;;;;;4.20;2.50;;;8.40;77.60;;;;;;5013893;28;20477;-74
2020/12/01 02:58:24;;;;;;;3.38;2.00;;;8.40;77.60;;;;;;4994908;28;20030;-74
2020/12/01 03:00:49;;;;;;;4.80;2.00;;;8.40;77.60;;;;;;5013974;28;20076;-75
2020/12/01 03:03:15;;;;;;;4.55;2.08;;;8.40;77.70;;;;;;4997063;28;20037;-75
2020/12/01 03:05:41;;;;;;;4.50;2.10;;;8.40;77.70;;;;;;5005882;28;20041;-75
2020/12/01 03:08:07;;;;;;;5.35;2.38;;;8.40;77.70;;;;;;5013130;28;20477;-75
2020/12/01 03:10:32;;;;;;;3.38;1.88;;;8.30;77.70;;;;;;5012606;28;20105;-75
2020/12/01 03:12:58;;;;;;;4.03;1.90;;;8.40;77.70;;;;;;5013696;28;20120;-74
2020/12/01 03:15:24;;;;;;;3.08;2.03;;;8.30;77.70;;;;;;5012872;28;20389;-75
2020/12/01 03:17:50;;;;;;;3.97;1.92;;;8.30;77.70;;;;;;5015557;28;20037;-75
2020/12/01 03:20:16;;;;;;;3.42;2.00;;;8.30;77.70;;;;;;5014145;28;20034;-75
2020/12/01 03:22:41;;;;;;;4.40;2.03;;;8.30;77.70;;;;;;5014073;28;20052;-76
2020/12/01 03:25:07;;;;;;;2.80;1.63;;;8.30;77.80;;;;;;4995731;28;20359;-75
2020/12/01 03:27:33;;;;;;;2.53;1.40;;;8.30;77.80;;;;;;5018661;28;20030;-73
2020/12/01 03:29:58;;;;;;;3.17;1.67;;;8.30;77.80;;;;;;5014886;28;20040;-75
2020/12/01 03:32:24;;;;;;;3.17;1.52;;;8.30;77.80;;;;;;4980489;28;20072;-75
2020/12/01 03:34:51;;;;;;;3.17;1.88;;;8.30;77.80;;;;;;5012769;28;20381;-75
2020/12/01 03:37:17;;;;;;;3.67;1.63;;;8.30;77.80;;;;;;5012542;28;20026;-76
2020/12/01 03:39:43;;;;;;;3.28;1.60;;;8.30;77.80;;;;;;5021070;28;20056;-75
2020/12/01 03:42:09;;;;;;;2.67;1.70;;;8.30;77.80;;;;;;5011739;28;20030;-75
2020/12/01 03:44:34;;;;;;;3.03;1.77;;;8.30;77.80;;;;;;5012268;28;20061;-75
2020/12/01 03:47:00;;;;;;;2.63;1.70;;;8.30;77.90;;;;;;5011628;28;20065;-74
2020/12/01 03:49:26;;;;;;;2.17;1.50;;;8.30;77.90;;;;;;5011744;28;20045;-74
2020/12/01 03:51:52;;;;;;;2.35;1.70;;;8.30;77.90;;;;;;4996653;28;20038;-75
2020/12/01 03:54:17;;;;;;;2.53;1.60;;;8.30;77.90;;;;;;4994926;28;20033;-75
2020/12/01 03:56:43;;;;;;;2.53;1.50;;;8.20;77.90;;;;;;5012447;28;20413;-75
2020/12/01 03:59:09;;;;;;;2.65;1.50;;;8.20;77.80;;;;;;5012024;28;20030;-74
2020/12/01 04:01:34;;;;;;;2.67;1.50;;;8.30;77.90;;;;;;5012653;28;20057;-74
2020/12/01 04:04:00;;;;;;;2.63;1.70;;;8.20;77.80;;;;;;5012428;28;20033;-75
2020/12/01 04:06:26;;;;;;;3.63;1.55;;;8.30;77.90;;;;;;5012882;28;20467;-75
2020/12/01 04:08:52;;;;;;;2.88;1.40;;;8.20;77.90;;;;;;5011847;28;20449;-74
2020/12/01 04:11:17;;;;;;;3.78;1.50;;;8.20;77.90;;;;;;5012912;28;20034;-75
2020/12/01 04:13:43;;;;;;;2.58;1.50;;;8.20;77.90;;;;;;5012174;28;20033;-74
2020/12/01 04:16:09;;;;;;;3.67;1.67;;;8.20;77.90;;;;;;5011433;28;20034;-75
2020/12/01 04:18:35;;;;;;;3.72;1.50;;;8.20;77.90;;;;;;5012406;28;20068;-76
2020/12/01 04:21:00;;;;;;;2.30;1.27;;;8.20;77.90;;;;;;5010803;28;20086;-75
2020/12/01 04:23:26;;;;;;;2.50;1.58;;;8.20;77.90;;;;;;4988149;28;20056;-74
2020/12/01 04:25:52;;;;;;;2.28;1.50;;;8.20;77.90;;;;;;5010113;28;20037;-75
2020/12/01 04:28:18;;;;;;;3.00;1.45;;;8.20;77.90;;;;;;5011194;28;20465;-75
2020/12/01 04:30:44;;;;;;;2.00;1.33;;;8.20;77.90;;;;;;5012112;28;20405;-75
2020/12/01 04:33:09;;;;;;;2.05;1.30;;;8.20;77.90;;;;;;5011372;28;20026;-75
2020/12/01 04:35:36;;;;;;;2.40;1.33;;;8.20;77.90;;;;;;4995088;28;20443;-75
2020/12/01 04:38:06;;;;;;;2.05;1.30;;;8.20;77.90;;;;;;5011830;28;20028;-75
2020/12/01 04:40:35;;;;;;;1.67;1.30;;;8.20;77.90;;;;;;5011836;28;20413;-74
2020/12/01 04:43:12;;;;;;;2.45;1.30;;;8.20;77.90;;;;;;5011829;28;20058;-74
2020/12/01 04:45:40;;;;;;;2.28;1.20;;;8.20;77.90;;;;;;5026679;28;20056;-75
2020/12/01 04:48:14;;;;;;;2.33;1.25;;;8.20;77.90;;;;;;5010763;28;20036;-75
2020/12/01 04:50:46;;;;;;;1.67;1.10;;;8.30;78.00;;;;;;5013562;28;20037;-74
2020/12/01 04:53:43;;;;;;;1.88;1.30;;;8.20;77.90;;;;;;5012025;28;20042;-74
2020/12/01 04:56:30;;;;;;;1.55;1.00;;;8.30;78.00;;;;;;5010967;28;20022;-74
2020/12/01 04:59:21;;;;;;;3.35;1.40;;;8.20;77.90;;;;;;5036292;28;20417;-75
2020/12/01 05:02:05;;;;;;;1.60;1.20;;;8.20;77.90;;;;;;5007667;28;20022;-74
2020/12/01 05:05:06;;;;;;;3.45;1.30;;;8.20;78.00;;;;;;5011634;28;20065;-74
2020/12/01 05:08:04;;;;;;;3.45;1.20;;;8.20;78.00;;;;;;5003869;28;20398;-76
2020/12/01 05:10:34;;;;;;;3.25;1.50;;;8.20;78.00;;;;;;5011667;28;20034;-74
2020/12/01 05:13:08;;;;;;;2.58;1.27;;;8.20;78.00;;;;;;5012439;28;20048;-75
2020/12/01 05:15:39;;;;;;;3.60;1.20;;;8.20;78.00;;;;;;5011490;28;20374;-74
2020/12/01 05:18:27;;;;;;;2.78;1.40;;;8.20;78.10;;;;;;5027454;28;20445;-75
2020/12/01 05:21:11;;;;;;;2.20;1.25;;;8.20;78.10;;;;;;5012533;28;20040;-75
2020/12/01 05:23:44;;;;;;;2.42;1.35;;;8.20;78.00;;;;;;5011543;28;20052;-75
2020/12/01 05:26:12;;;;;;;1.40;1.10;;;8.30;78.10;;;;;;5020305;28;20109;-76
2020/12/01 05:28:48;;;;;;;3.95;1.30;;;8.20;78.10;;;;;;5011375;28;20556;-75
2020/12/01 05:31:17;;;;;;;1.38;1.08;;;8.20;78.10;;;;;;5010819;28;20381;-75
2020/12/01 05:33:43;;;;;;;3.60;1.23;;;8.20;78.00;;;;;;5012491;28;20032;-75
2020/12/01 05:36:20;;;;;;;2.70;1.30;;;8.30;78.10;;;;;;5017464;28;20042;-75
2020/12/01 05:38:58;;;;;;;2.10;1.20;;;8.30;78.10;;;;;;4994800;28;20533;-77
2020/12/01 05:41:37;;;;;;;1.98;1.00;;;8.30;78.10;;;;;;5009281;28;20022;-75
2020/12/01 05:44:17;;;;;;;2.17;1.30;;;8.30;78.10;;;;;;5026763;28;20029;-75
2020/12/01 05:46:47;;;;;;;2.17;1.13;;;8.30;78.10;;;;;;5016228;28;20062;-75
2020/12/01 05:49:32;;;;;;;1.52;1.10;;;8.30;78.00;;;;;;5013992;28;20038;-74
2020/12/01 05:52:13;;;;;;;2.23;1.20;;;8.30;78.10;;;;;;5010389;28;20026;-75
2020/12/01 05:54:42;;;;;;;2.30;1.20;;;8.30;78.10;;;;;;5010744;28;20121;-74
2020/12/01 05:57:21;;;;;;;1.67;1.25;;;8.30;78.00;;;;;;5017542;28;20030;-74
2020/12/01 06:00:00;;;;;;;4.40;1.40;;;8.30;78.10;;;;;;5020275;28;20034;-75
2020/12/01 06:02:42;;;;;;;2.10;1.10;;;8.30;78.10;;;;;;5016665;28;20033;-75
2020/12/01 06:05:11;;;;;;;1.70;1.17;;;8.30;78.10;;;;;;5010662;28;20033;-75
2020/12/01 06:07:38;;;;;;;2.70;1.20;;;8.30;78.00;;;;;;5012411;28;20028;-74
2020/12/01 06:10:07;;;;;;;1.55;1.08;;;8.40;78.10;;;;;;5016468;28;20040;-75
2020/12/01 06:12:33;;;;;;;2.78;1.10;;;8.30;78.10;;;;;;5011669;28;20478;-75
2020/12/01 06:15:10;;;;;;;1.55;1.08;;;8.40;78.10;;;;;;5010432;28;20021;-74
2020/12/01 06:17:39;;;;;;;1.73;1.00;;;8.40;78.10;;;;;;5014144;28;20079;-75
2020/12/01 06:20:30;;;;;;;1.88;1.30;;;8.40;78.10;;;;;;5013540;28;20033;-75
2020/12/01 06:23:27;;;;;;;2.40;1.30;;;8.40;78.10;;;;;;5013883;28;20030;-74
2020/12/01 06:26:30;;;;;;;1.67;1.00;;;8.40;78.10;;;;;;5014145;28;20040;-74
2020/12/01 06:29:08;;;;;;;1.65;1.17;;;8.40;78.10;;;;;;5005773;28;20028;-75
2020/12/01 06:31:41;;;;;;;2.10;1.30;;;8.40;78.10;;;;;;5014041;28;20025;-74
2020/12/01 06:34:28;;;;;;;2.72;1.15;;;8.40;78.10;;;;;;5014081;28;20026;-74
2020/12/01 06:37:32;;;;;;;2.05;1.20;;;8.40;78.10;;;;;;5014119;28;20465;-75
2020/12/01 06:40:01;;;;;;;2.17;1.23;;;8.40;78.20;;;;;;5014035;28;20041;-75
2020/12/01 06:42:47;;;;;;;2.15;1.33;;;8.40;78.10;;;;;;5014553;28;20049;-75
2020/12/01 06:45:31;;;;;;;2.78;1.40;;;8.40;78.10;;;;;;5008992;28;20030;-74
2020/12/01 06:48:38;;;;;;;1.05;0.93;;;8.40;78.10;;;;;;5013102;28;20033;-75
2020/12/01 06:51:05;;;;;;;2.08;1.25;;;8.40;78.10;;;;;;5012560;28;20037;-75
2020/12/01 06:53:34;;;;;;;3.10;1.25;;;8.50;78.10;;;;;;4997195;28;20057;-75
2020/12/01 06:56:20;;;;;;;2.30;1.13;;;8.40;78.10;;;;;;5013587;28;20155;-75
2020/12/01 06:58:48;;;;;;;1.67;1.23;;;8.40;78.10;;;;;;5013165;28;20046;-76
2020/12/01 07:01:30;;;;;;;1.95;1.30;;;8.50;78.10;;;;;;5012348;28;20489;-74
2020/12/01 07:04:26;;;;;;;1.60;1.38;;;8.50;78.10;;;;;;5010427;28;20038;-75
2020/12/01 07:06:52;;;;;;;1.63;1.17;;;8.50;78.10;;;;;;4989921;28;20397;-76
2020/12/01 07:09:24;;;;;;;1.60;1.20;;;8.50;78.00;;;;;;5013989;28;20041;-75
2020/12/01 07:12:01;;;;;;;1.33;1.20;;;8.50;78.10;;;;;;5014914;28;20148;-75
2020/12/01 07:14:38;;;;;;;2.88;1.40;;;8.50;78.10;;;;;;5013473;28;20022;-75
2020/12/01 07:17:23;;;;;;;2.60;1.42;;;8.50;78.10;;;;;;5013584;28;20536;-81
2020/12/01 07:20:07;;;;;;;2.92;1.77;;;8.50;78.10;;;;;;5028596;28;20034;-75
2020/12/01 07:23:00;;;;;;;1.30;1.15;;;8.50;78.10;;;;;;5013158;28;20096;-74
2020/12/01 07:25:46;;;;;;;2.17;1.50;;;8.60;78.10;;;;;;5012406;28;20021;-74
2020/12/01 07:28:50;;;;;;;2.42;1.50;;;8.50;78.10;;;;;;5012200;28;20060;-74
2020/12/01 07:31:21;;;;;;;1.35;1.17;;;8.50;78.10;;;;;;5000604;28;20060;-74
2020/12/01 07:34:12;;;;;;;2.00;1.40;;;8.60;78.00;;;;;;5013358;28;20139;-76
2020/12/01 07:36:41;;;;;;;2.15;1.60;;;8.60;78.10;;;;;;5007765;28;20042;-74
2020/12/01 07:39:26;;;;;;;2.83;1.80;;;8.60;78.10;;;;;;5012751;28;20447;-74
2020/12/01 07:42:02;;;;;;;2.20;1.30;;;8.60;78.10;;;;;;5011219;28;20058;-74
2020/12/01 07:44:32;;;;;;;2.20;1.60;;;8.60;78.10;;;;;;5013903;28;20017;-74
2020/12/01 07:47:21;;;;;;;1.65;1.42;;;8.60;78.10;;;;;;5011769;28;20045;-75
2020/12/01 07:50:22;;;;;;;1.88;1.42;;;8.60;78.10;;;;;;5013715;28;20059;-78
2020/12/01 07:52:59;;;;;;;1.80;1.35;;;8.70;78.10;;;;;;4937013;28;20387;-75
2020/12/01 07:55:48;;;;;;;2.97;1.60;;;8.70;78.10;;;;;;5004328;28;20037;-74
2020/12/01 07:58:20;;;;;;;2.17;1.35;;;8.70;78.10;;;;;;5012446;28;20037;-74
2020/12/01 08:00:54;;;;;;;1.83;1.40;;;8.70;78.10;;;;;;5012571;28;20030;-77
2020/12/01 08:03:48;;;;;;;2.65;1.70;;;8.70;78.10;;;;;;5027827;28;20470;-75
2020/12/01 08:06:15;;;;;;;2.65;1.50;;;8.70;78.10;;;;;;5009592;28;20125;-75
2020/12/01 08:08:45;;;;;;;2.25;1.58;;;8.70;78.20;;;;;;5006016;28;20060;-75
2020/12/01 08:11:15;;;;;;;1.23;1.10;;;8.70;78.20;;;;;;5012339;28;20037;-75
2020/12/01 08:13:43;;;;;;;2.45;1.40;;;8.70;78.30;;;;;;5013743;28;20032;-75
2020/12/01 08:16:16;;;;;;;1.30;1.20;;;8.80;78.40;;;;;;5028004;28;20018;-75
2020/12/01 08:18:44;;;;;;;1.73;1.20;;;8.80;78.40;;;;;;5005856;28;20033;-78
2020/12/01 08:21:10;;;;;;;2.20;1.00;;;8.90;78.50;;;;;;4994464;28;20041;-75
2020/12/01 08:23:37;;;;;;;2.40;1.30;;;8.80;78.40;;;;;;5013543;28;20025;-75
2020/12/01 08:26:11;;;;;;;3.35;1.10;;;8.80;78.50;;;;;;5012885;28;20458;-75
2020/12/01 08:28:43;;;;;;;2.85;1.27;;;8.90;78.60;;;;;;5012949;28;20211;-75
2020/12/01 08:31:34;;;;;;;2.10;1.13;;;8.90;78.60;;;;;;5028313;28;20042;-75
2020/12/01 08:34:31;;;;;;;4.55;1.23;;;8.90;78.60;;;;;;5012286;28;20057;-75
2020/12/01 08:37:03;;;;;;;2.33;1.10;;;9.00;78.60;;;;;;4995421;28;20018;-75
2020/12/01 08:39:29;;;;;;;3.58;1.20;;;9.00;78.60;;;;;;5011083;28;20034;-75
2020/12/01 08:42:21;;;;;;;3.33;1.00;;;9.00;78.60;;;;;;5011839;28;20029;-76
2020/12/01 08:45:11;;;;;;;2.22;1.05;;;9.00;78.70;;;;;;5001833;28;20025;-76
2020/12/01 08:47:38;;;;;;;4.22;1.30;;;9.00;78.60;;;;;;5031400;28;20455;-76
2020/12/01 08:50:23;;;;;;;2.40;1.20;;;9.10;78.60;;;;;;4994874;28;20041;-76
2020/12/01 08:52:49;;;;;;;4.13;1.40;;;9.10;78.70;;;;;;5012633;28;20096;-76
2020/12/01 08:55:28;;;;;;;3.58;1.20;;;9.10;78.70;;;;;;5010220;28;20445;-76
2020/12/01 08:58:38;;;;;;;2.95;1.25;;;9.10;78.70;;;;;;5012479;28;20060;-76
2020/12/01 09:01:15;;;;;;;1.50;1.10;;;9.10;78.70;;;;;;4992119;28;20088;-77
2020/12/01 09:03:54;;;;;;;4.95;1.17;;;9.20;78.70;;;;;;5018381;28;20033;-76
2020/12/01 09:06:34;;;;;;;4.47;1.60;;;9.20;78.70;;;;;;5011372;28;20061;-76
2020/12/01 09:09:08;;;;;;;2.92;1.20;;;9.20;78.80;;;;;;5013312;28;20026;-75
2020/12/01 09:12:05;;;;;;;3.20;1.20;;;9.20;78.80;;;;;;5011537;28;20588;-77
2020/12/01 09:14:49;;;;;;;2.45;1.27;;;9.20;78.80;;;;;;5011789;28;20034;-75
2020/12/01 09:20:42;;;;;;;4.25;1.30;;;9.30;78.80;;;;;;5012535;28;20033;-75
2020/12/01 09:23:23;;;;;;;4.05;1.30;;;9.30;78.70;;;;;;5012264;28;20037;-75
2020/12/01 09:25:50;;;;;;;3.70;1.30;;;9.30;78.70;;;;;;5027518;28;20053;-76
2020/12/01 09:28:28;;;;;;;5.20;1.70;;;9.40;78.70;;;;;;4994010;28;20022;-75
2020/12/01 09:31:01;;;;;;;3.70;1.40;;;9.40;78.80;;;;;;5006643;28;20069;-75
2020/12/01 09:33:28;;;;;;;3.42;1.30;;;9.40;78.70;;;;;;5008039;28;20410;-76
2020/12/01 09:35:53;;;;;;;3.88;1.48;;;9.40;78.70;;;;;;4985899;28;20014;-77
2020/12/01 09:38:19;;;;;;;4.15;1.38;;;9.40;78.70;;;;;;4979037;28;20037;-74
2020/12/01 09:40:48;;;;;;;3.58;1.20;;;9.40;78.70;;;;;;5011176;28;20029;-75
2020/12/01 09:43:22;;;;;;;5.63;1.60;;;9.50;78.70;;;;;;4995532;28;20034;-75
2020/12/01 09:45:49;;;;;;;4.78;1.50;;;9.50;78.70;;;;;;4996163;28;20037;-74
2020/12/01 09:50:41;;;;;;;5.15;1.40;;;9.50;78.70;;;;;;5012061;28;20038;-74
2020/12/01 09:53:20;;;;;;;5.25;1.38;;;9.50;78.70;;;;;;5012695;28;20103;-75
2020/12/01 10:35:44;;;;;;;3.83;1.25;;;9.80;78.70;;;;;;5012777;28;20038;-78
2020/12/01 10:38:10;;;;;;;3.72;1.40;;;9.80;78.70;;;;;;5014784;28;20041;-75
2020/12/01 10:40:36;;;;;;;5.38;1.27;;;9.80;78.80;;;;;;5014484;28;20089;-76
2020/12/01 10:43:02;;;;;;;3.13;1.30;;;9.90;78.90;;;;;;5013285;28;20034;-75
2020/12/01 10:45:28;;;;;;;5.18;1.50;;;9.90;78.80;;;;;;5014160;28;20109;-74
2020/12/01 10:47:55;;;;;;;4.97;1.60;;;9.90;78.80;;;;;;5014574;28;20026;-74
2020/12/01 10:50:27;;;;;;;4.32;1.30;;;10.00;78.90;;;;;;5012478;28;20397;-75
2020/12/01 10:52:54;;;;;;;5.63;1.38;;;10.00;78.90;;;;;;4993889;28;20073;-75
2020/12/01 10:55:24;;;;;;;3.63;1.60;;;10.00;78.80;;;;;;5012656;28;20478;-76
2020/12/01 10:57:51;;;;;;;3.40;1.27;;;10.00;78.90;;;;;;4997008;28;20061;-75
2020/12/01 11:00:19;;;;;;;5.63;1.58;;;10.00;78.80;;;;;;4996543;28;20033;-75
2020/12/01 11:02:44;;;;;;;4.65;1.40;;;10.00;78.80;;;;;;5012904;28;20112;-75
2020/12/01 11:05:14;;;;;;;4.63;1.60;;;10.00;78.80;;;;;;4998373;28;20129;-75
2020/12/01 11:07:40;;;;;;;5.05;1.40;;;10.10;78.80;;;;;;5012331;28;20504;-76
2020/12/01 11:10:05;;;;;;;5.03;1.52;;;10.10;78.80;;;;;;5011168;28;20038;-80
2020/12/01 11:12:31;;;;;;;3.90;1.33;;;10.10;78.80;;;;;;4996818;28;20042;-75
2020/12/01 11:14:57;;;;;;;3.28;1.30;;;10.10;78.80;;;;;;4995898;28;20058;-77
2020/12/01 11:17:23;;;;;;;4.40;1.40;;;10.10;78.80;;;;;;5007468;28;20038;-75
2020/12/01 11:19:48;;;;;;;4.30;1.40;;;10.10;78.80;;;;;;5012358;28;20044;-77
2020/12/01 11:22:15;;;;;;;3.72;1.30;;;10.20;78.80;;;;;;5014551;28;20030;-76
2020/12/01 11:24:41;;;;;;;4.03;1.23;;;10.20;78.80;;;;;;4995642;28;20034;-75
2020/12/01 11:27:07;;;;;;;3.00;1.33;;;10.20;79.50;;;;;;5014490;28;20124;-76
2020/12/01 11:29:34;;;;;;;6.18;1.30;;;10.20;78.80;;;;;;5013340;28;20805;-76
2020/12/01 11:31:59;;;;;;;7.03;1.30;;;10.20;78.80;;;;;;5009013;28;20065;-76
2020/12/01 11:34:25;;;;;;;5.10;1.50;;;10.30;78.80;;;;;;4991189;28;20083;-77
2020/12/01 11:36:53;;;;;;;5.15;1.33;;;10.20;78.80;;;;;;4994562;28;20432;-77
2020/12/01 11:39:19;;;;;;;3.47;1.75;;;10.20;78.80;;;;;;4994802;28;20117;-77
2020/12/01 11:41:45;;;;;;;7.32;1.75;;;10.30;78.90;;;;;;4994126;28;20113;-78
2020/12/01 11:44:12;;;;;;;5.45;1.60;;;10.30;78.80;;;;;;4977058;28;20033;-77
2020/12/01 11:46:38;;;;;;;2.78;1.10;;;10.30;78.80;;;;;;5011363;28;20034;-76
2020/12/01 11:49:04;;;;;;;4.75;1.50;;;10.30;78.80;;;;;;4995232;28;20199;-76
2020/12/01 11:51:31;;;;;;;3.67;1.50;;;10.30;78.80;;;;;;4994965;28;20694;-77
2020/12/01 11:53:58;;;;;;;4.10;1.52;;;10.30;78.80;;;;;;4994118;28;20058;-77
2020/12/01 11:56:24;;;;;;;5.70;1.45;;;10.30;78.80;;;;;;4978077;28;20033;-76
2020/12/01 11:58:50;;;;;;;5.10;1.48;;;10.40;78.90;;;;;;5011766;28;20030;-77
2020/12/01 12:01:16;;;;;;;5.28;1.45;;;10.40;78.90;;;;;;5008682;28;20034;-81
2020/12/01 12:03:43;;;;;;;3.63;1.25;;;10.40;78.90;;;;;;4990641;28;20034;-78
2020/12/01 12:06:09;;;;;;;4.95;1.30;;;10.40;78.80;;;;;;4993812;28;20029;-76
2020/12/01 12:08:35;;;;;;;2.72;1.10;;;10.40;78.90;;;;;;4994494;28;20112;-77
2020/12/01 12:11:01;;;;;;;6.50;1.38;;;10.40;78.90;;;;;;5011206;28;20065;-79
2020/12/01 12:13:28;;;;;;;4.45;1.30;;;10.40;78.80;;;;;;4994254;28;20030;-76
2020/12/01 12:15:54;;;;;;;4.55;1.30;;;10.40;78.80;;;;;;5010733;28;20057;-77
2020/12/01 12:18:19;;;;;;;3.90;1.50;;;10.40;78.80;;;;;;5011783;28;20032;-76
2020/12/01 12:20:45;;;;;;;3.38;1.20;;;10.50;78.80;;;;;;4994709;28;20029;-77
2020/12/01 12:23:11;;;;;;;5.82;1.35;;;10.50;78.80;;;;;;5012077;28;20038;-77
2020/12/01 12:25:37;;;;;;;3.67;1.30;;;10.50;78.80;;;;;;5008552;28;20021;-77
2020/12/01 12:28:03;;;;;;;4.38;1.50;;;10.50;78.80;;;;;;5011497;28;20057;-77
2020/12/01 12:30:29;;;;;;;3.35;1.20;;;10.50;78.80;;;;;;4979045;28;20065;-77
2020/12/01 12:32:54;;;;;;;3.78;1.30;;;10.50;78.80;;;;;;5011542;28;20843;-76
2020/12/01 12:35:20;;;;;;;3.50;1.52;;;10.50;78.70;;;;;;5010180;28;20044;-76
2020/12/01 12:37:46;;;;;;;3.47;1.35;;;10.60;78.80;;;;;;5011486;28;20045;-77
2020/12/01 12:40:12;;;;;;;2.63;1.25;;;10.60;78.90;;;;;;5011675;28;20037;-76
2020/12/01 12:42:38;;;;;;;4.38;1.27;;;10.60;78.90;;;;;;5011027;28;20065;-76
2020/12/01 12:45:06;;;;;;;6.22;1.48;;;10.60;78.80;;;;;;4995286;28;20036;-77
2020/12/01 12:47:32;;;;;;;4.00;1.27;;;10.60;78.90;;;;;;5011450;28;20029;-76
2020/12/01 12:49:57;;;;;;;4.32;1.30;;;10.60;78.80;;;;;;4991270;28;20038;-78
2020/12/01 12:52:23;;;;;;;6.10;1.40;;;10.60;78.80;;;;;;4993347;28;20037;-77
2020/12/01 12:54:49;;;;;;;4.07;1.23;;;10.60;78.80;;;;;;5008130;28;20418;-77
2020/12/01 12:57:15;;;;;;;3.45;1.17;;;10.70;78.80;;;;;;5007541;28;20593;-77
2020/12/01 12:59:41;;;;;;;3.28;1.63;;;10.70;78.80;;;;;;4997585;28;20183;-79
2020/12/01 13:02:07;;;;;;;5.70;1.38;;;10.70;78.80;;;;;;4976099;28;20032;-77
2020/12/01 13:04:33;;;;;;;3.45;1.10;;;10.70;78.90;;;;;;4989849;28;20049;-79
2020/12/01 13:06:58;;;;;;;4.85;1.38;;;10.70;78.90;;;;;;5008901;28;20058;-76
2020/12/01 13:09:24;;;;;;;4.97;1.33;;;10.70;78.90;;;;;;5009205;28;20064;-77
2020/12/01 13:11:51;;;;;;;4.30;1.20;;;10.70;78.90;;;;;;4993604;28;20057;-80
2020/12/01 13:14:18;;;;;;;4.28;1.40;;;10.80;78.90;;;;;;5010619;28;20018;-75
2020/12/01 13:16:48;;;;;;;6.22;1.40;;;10.80;78.90;;;;;;5009543;28;20029;-77
2020/12/01 13:19:15;;;;;;;3.50;1.30;;;10.80;78.90;;;;;;5009881;28;20032;-77
2020/12/01 13:21:41;;;;;;;4.43;1.35;;;10.80;78.90;;;;;;4993702;28;20030;-77
2020/12/01 13:24:07;;;;;;;4.30;1.40;;;10.80;78.80;;;;;;5008837;28;20084;-77
2020/12/01 13:26:33;;;;;;;3.70;1.33;;;10.80;78.80;;;;;;4995474;28;20034;-77
2020/12/01 13:28:58;;;;;;;7.45;1.55;;;10.90;78.80;;;;;;4998393;28;20041;-77
2020/12/01 13:31:24;;;;;;;3.53;1.23;;;10.80;78.80;;;;;;5014051;28;20477;-78
2020/12/01 13:33:50;;;;;;;4.18;1.30;;;10.90;78.80;;;;;;4998589;28;20061;-77
2020/12/01 13:36:23;;;;;;;4.55;1.23;;;10.80;78.80;;;;;;5015114;28;20397;-76
2020/12/01 13:38:49;;;;;;;3.65;1.33;;;10.90;78.80;;;;;;5022358;28;20046;-77
2020/12/01 13:41:15;;;;;;;6.57;1.30;;;10.90;78.80;;;;;;5013949;28;20053;-76
2020/12/01 13:43:41;;;;;;;6.97;1.52;;;10.90;78.80;;;;;;5015100;28;20057;-76
2020/12/01 13:46:08;;;;;;;3.13;1.10;;;10.90;79.40;;;;;;4997994;28;20061;-76
2020/12/01 13:48:34;;;;;;;5.70;1.23;;;10.90;78.70;;;;;;5012503;28;20122;-77
2020/12/01 13:50:59;;;;;;;2.60;0.98;;;10.90;78.70;;;;;;4997818;28;20141;-76
2020/12/01 13:53:27;;;;;;;4.40;1.40;;;11.00;78.80;;;;;;5014457;28;20120;-77
2020/12/01 13:55:54;;;;;;;3.97;1.40;;;11.00;78.80;;;;;;4981773;28;20048;-76
2020/12/01 13:58:20;;;;;;;2.80;1.13;;;11.00;78.80;;;;;;5005373;28;20056;-80
2020/12/01 14:00:46;;;;;;;4.82;1.40;;;11.00;78.70;;;;;;4997131;28;20046;-76
2020/12/01 14:03:12;;;;;;;1.92;1.08;;;11.00;78.70;;;;;;5013213;28;20042;-76